K0CO

Empire

Empire, Colorado, USA
METAR K0CO 201253Z AUTO 27018G26KT 10SM CLR M06/M12 A2993 RMK AO2
Observed Flight Rules
Jan-20 @ 12:53 UTC (20 minutes ago) Visual Flight Rules
Wind Visibility Clouds
270° at 18 knots
 Gusting to 26 knots
10 miles
  • Clear skies
Temperatures Readings
Current -6°C / 21°F
Dewpoint -12°C / 10°F
Humidity 63%
Altimeter 29.93" Hg
Pressure 1014 hPa
Elevation 3807
METAR K0CO 201253Z AUTO 27018G26KT 10SM CLR M06/M12 A2993 RMK AO2
Observed Flight Rules
Jan-20 @ 12:53 UTC
(20 minutes ago)
VFR
Wind Visibility
270° at 18 knots
 Gusting to 26 knots
10 miles
Clouds
  • Clear skies
Temperature Dewpoint
-6°C / 21°F -12°C / 10°F
Humidity Altimeter Pressure
63% 29.93" Hg 1014 hPa